createdAt,value
2017-03-21T00:00:19.274Z,1006.5
2017-03-21T00:01:22.124Z,1006.5
2017-03-21T00:02:24.473Z,1006.5
2017-03-21T00:03:27.323Z,1006.5
2017-03-21T00:04:30.348Z,1006.5
2017-03-21T00:05:32.697Z,1006.5
2017-03-21T00:06:35.552Z,1006.6
2017-03-21T00:07:38.265Z,1006.6
2017-03-21T00:08:40.616Z,1006.6
2017-03-21T00:09:43.503Z,1006.6
2017-03-21T00:10:45.851Z,1006.6
2017-03-21T00:11:48.754Z,1006.5
2017-03-21T00:12:51.473Z,1006.6
2017-03-21T00:13:53.832Z,1006.6
2017-03-21T00:14:56.808Z,1006.5
2017-03-21T00:15:59.170Z,1006.5
2017-03-21T00:17:02.015Z,1006.5
2017-03-21T00:18:04.742Z,1006.5
2017-03-21T00:19:07.460Z,1006.6
2017-03-21T00:20:10.610Z,1006.6
2017-03-21T00:22:15.366Z,1006.5
2017-03-21T00:23:18.223Z,1006.6
2017-03-21T00:24:20.577Z,1006.5
2017-03-21T00:25:23.681Z,1006.5
2017-03-21T00:26:26.025Z,1006.5
2017-03-21T00:27:28.879Z,1006.5
2017-03-21T00:28:31.224Z,1006.6
2017-03-21T00:29:34.081Z,1006.5
2017-03-21T00:30:37.236Z,1006.6
2017-03-21T00:31:39.587Z,1006.5
2017-03-21T00:32:41.932Z,1006.6
2017-03-21T00:33:44.793Z,1006.6
2017-03-21T00:34:47.646Z,1006.6
2017-03-21T00:35:50.293Z,1006.5
2017-03-21T00:36:52.641Z,1006.6
2017-03-21T00:37:55.501Z,1006.6
2017-03-21T00:38:58.222Z,1006.6
2017-03-21T00:40:01.078Z,1006.6
2017-03-21T00:41:03.680Z,1006.6
2017-03-21T00:42:06.397Z,1006.6
2017-03-21T00:43:08.746Z,1006.6
2017-03-21T00:44:11.599Z,1006.5
2017-03-21T00:45:14.324Z,1006.5
2017-03-21T00:46:16.974Z,1006.5
2017-03-21T00:47:19.317Z,1006.5
2017-03-21T00:48:22.170Z,1006.6
2017-03-21T00:49:24.899Z,1006.5
2017-03-21T00:50:27.750Z,1006.5
2017-03-21T00:51:30.399Z,1006.6
2017-03-21T00:52:32.752Z,1006.5
2017-03-21T00:53:35.611Z,1006.5
2017-03-21T00:55:40.874Z,1006.4
2017-03-21T00:56:44.033Z,1006.5
2017-03-21T00:57:46.382Z,1006.5
2017-03-21T00:58:48.732Z,1006.6
2017-03-21T00:59:51.456Z,1006.5
2017-03-21T01:00:54.309Z,1006.6
2017-03-21T01:01:57.414Z,1006.5
2017-03-21T01:02:59.623Z,1006.5
2017-03-21T01:04:02.477Z,1006.5
2017-03-21T01:05:04.840Z,1006.5
2017-03-21T01:06:07.554Z,1006.5
2017-03-21T01:07:10.706Z,1006.4
2017-03-21T01:08:13.056Z,1006.4
2017-03-21T01:09:15.777Z,1006.4
2017-03-21T01:10:18.143Z,1006.4
2017-03-21T01:11:20.998Z,1006.4
2017-03-21T01:12:23.972Z,1006.4
2017-03-21T01:13:26.186Z,1006.4
2017-03-21T01:14:29.045Z,1006.4
2017-03-21T01:15:31.899Z,1006.4
2017-03-21T01:16:34.252Z,1006.4
2017-03-21T01:17:37.404Z,1006.4
2017-03-21T01:18:39.757Z,1006.4
2017-03-21T01:19:42.481Z,1006.4
2017-03-21T01:20:45.202Z,1006.4
2017-03-21T01:21:47.917Z,1006.3
2017-03-21T01:22:50.516Z,1006.4
2017-03-21T01:23:52.872Z,1006.4
2017-03-21T01:24:55.732Z,1006.4
2017-03-21T01:25:58.589Z,1006.4
2017-03-21T01:27:00.938Z,1006.4
2017-03-21T01:28:04.150Z,1006.4
2017-03-21T01:29:06.509Z,1006.4
2017-03-21T01:30:08.865Z,1006.4
2017-03-21T01:31:11.713Z,1006.4
2017-03-21T01:32:14.558Z,1006.4
2017-03-21T01:33:17.213Z,1006.4
2017-03-21T01:34:19.428Z,1006.4
2017-03-21T01:35:22.280Z,1006.5
2017-03-21T01:36:25.130Z,1006.5
2017-03-21T01:37:27.479Z,1006.5
2017-03-21T01:38:30.520Z,1006.5
2017-03-21T01:39:32.870Z,1006.5
2017-03-21T01:40:35.723Z,1006.5
2017-03-21T01:41:38.069Z,1006.5
2017-03-21T01:42:40.785Z,1006.5
2017-03-21T01:43:43.626Z,1006.4
2017-03-21T01:44:46.479Z,1006.4
2017-03-21T01:45:48.833Z,1006.5
2017-03-21T01:46:51.690Z,1006.5
2017-03-21T01:47:22.334Z,1006.5
2017-03-21T01:47:54.490Z,1006.5
2017-03-21T01:48:25.134Z,1006.5
2017-03-21T01:48:57.090Z,1006.5
2017-03-21T01:49:59.438Z,1006.5
2017-03-21T01:51:02.019Z,1006.5
2017-03-21T01:52:04.872Z,1006.5
2017-03-21T01:53:07.722Z,1006.6
2017-03-21T01:54:10.381Z,1006.5
2017-03-21T01:55:12.731Z,1006.5
2017-03-21T01:56:15.580Z,1006.6
2017-03-21T01:57:18.295Z,1006.6
2017-03-21T01:58:20.647Z,1006.6
2017-03-21T01:59:23.806Z,1006.5
2017-03-21T02:00:26.162Z,1006.5
2017-03-21T02:01:29.010Z,1006.6
2017-03-21T02:02:31.356Z,1006.6
2017-03-21T02:03:34.209Z,1006.6
2017-03-21T02:04:36.821Z,1006.5
2017-03-21T02:05:39.599Z,1006.5
2017-03-21T02:06:41.943Z,1006.6
2017-03-21T02:07:44.724Z,1006.6
2017-03-21T02:08:47.576Z,1006.6
2017-03-21T02:09:50.240Z,1006.6
2017-03-21T02:10:52.762Z,1006.6
2017-03-21T02:12:01.968Z,1006.7
2017-03-21T02:12:58.141Z,1006.6
2017-03-21T02:14:00.524Z,1006.7
2017-03-21T02:15:03.554Z,1006.6
2017-03-21T02:16:05.900Z,1006.6
2017-03-21T02:17:08.760Z,1006.6
2017-03-21T02:18:11.108Z,1006.6
2017-03-21T02:19:13.819Z,1006.6
2017-03-21T02:20:16.982Z,1006.6
2017-03-21T02:21:19.327Z,1006.6
2017-03-21T02:22:22.176Z,1006.6
2017-03-21T02:23:24.723Z,1006.6
2017-03-21T02:24:27.311Z,1006.6
2017-03-21T02:25:29.969Z,1006.6
2017-03-21T02:26:32.686Z,1006.6
2017-03-21T02:28:37.812Z,1006.6
2017-03-21T02:29:40.664Z,1006.6
2017-03-21T02:30:43.313Z,1006.6
2017-03-21T02:31:45.666Z,1006.6
2017-03-21T02:32:48.511Z,1006.6
2017-03-21T02:33:51.372Z,1006.6
2017-03-21T02:34:53.723Z,1006.6
2017-03-21T02:35:56.871Z,1006.5
2017-03-21T02:36:59.217Z,1006.5
2017-03-21T02:38:01.564Z,1006.5
2017-03-21T02:39:04.413Z,1006.5
2017-03-21T02:40:07.265Z,1006.5
2017-03-21T02:41:09.916Z,1006.6
2017-03-21T02:42:12.267Z,1006.6
2017-03-21T02:43:15.121Z,1006.6
2017-03-21T02:44:17.978Z,1006.6
2017-03-21T02:45:20.205Z,1006.6
2017-03-21T02:47:26.267Z,1006.6
2017-03-21T02:48:28.613Z,1006.6
2017-03-21T02:49:30.965Z,1006.7
2017-03-21T02:50:33.819Z,1006.7
2017-03-21T02:51:36.173Z,1006.6
2017-03-21T02:52:39.335Z,1006.6
2017-03-21T02:53:41.690Z,1006.6
2017-03-21T02:54:44.268Z,1006.7
2017-03-21T02:55:47.121Z,1006.7
2017-03-21T02:56:49.974Z,1006.6
2017-03-21T02:57:52.622Z,1006.7
2017-03-21T02:58:54.979Z,1006.7
2017-03-21T02:59:57.827Z,1006.7
2017-03-21T03:01:00.406Z,1006.7
2017-03-21T03:02:03.254Z,1006.7
2017-03-21T03:03:06.142Z,1006.7
2017-03-21T03:04:08.360Z,1006.7
2017-03-21T03:05:11.090Z,1006.7
2017-03-21T03:06:13.948Z,1006.7
2017-03-21T03:07:16.293Z,1006.7
2017-03-21T03:09:21.839Z,1006.8
2017-03-21T03:10:24.191Z,1006.8
2017-03-21T03:11:27.227Z,1006.8
2017-03-21T03:12:29.574Z,1006.8
2017-03-21T03:13:32.431Z,1006.8
2017-03-21T03:14:35.033Z,1006.8
2017-03-21T03:15:37.750Z,1006.8
2017-03-21T03:16:40.101Z,1006.8
2017-03-21T03:17:42.825Z,1006.8
2017-03-21T03:18:45.677Z,1006.8
2017-03-21T03:19:48.696Z,1006.8
2017-03-21T03:20:51.044Z,1006.9
2017-03-21T03:21:53.403Z,1006.8
2017-03-21T03:22:56.260Z,1006.9
2017-03-21T03:23:59.112Z,1006.9
2017-03-21T03:25:01.771Z,1006.9
2017-03-21T03:26:04.122Z,1006.9
2017-03-21T03:27:06.842Z,1006.9
2017-03-21T03:28:09.706Z,1006.9
2017-03-21T03:29:12.052Z,1006.9
2017-03-21T03:31:18.062Z,1006.9
2017-03-21T03:32:20.280Z,1006.9
2017-03-21T03:33:23.142Z,1006.9
2017-03-21T03:34:25.504Z,1006.9
2017-03-21T03:35:28.356Z,1006.9
2017-03-21T03:36:31.380Z,1006.9
2017-03-21T03:37:33.598Z,1006.9
2017-03-21T03:38:36.459Z,1006.9
2017-03-21T03:39:38.808Z,1006.9
2017-03-21T03:40:41.654Z,1006.9
2017-03-21T03:41:44.757Z,1006.9
2017-03-21T03:42:47.099Z,1006.9
2017-03-21T03:43:49.487Z,1006.9
2017-03-21T03:44:52.342Z,1006.9
2017-03-21T03:45:54.927Z,1006.9
2017-03-21T03:46:57.943Z,1006.9
2017-03-21T03:48:00.295Z,1006.9
2017-03-21T03:49:03.154Z,1006.9
2017-03-21T03:50:05.510Z,1006.9
2017-03-21T03:51:08.354Z,1006.9
2017-03-21T03:52:10.999Z,1006.9
2017-03-21T03:54:16.124Z,1006.9
2017-03-21T03:55:18.981Z,1006.9
2017-03-21T03:56:21.335Z,1006.9
2017-03-21T03:57:24.494Z,1006.9
2017-03-21T03:58:27.084Z,1006.9
2017-03-21T03:59:29.439Z,1006.9
2017-03-21T04:00:32.296Z,1007
2017-03-21T04:01:34.646Z,1007
2017-03-21T04:02:37.800Z,1007
2017-03-21T04:03:40.152Z,1006.9
2017-03-21T04:04:43.007Z,1006.9
2017-03-21T04:05:45.360Z,1006.9
2017-03-21T04:06:48.209Z,1006.9
2017-03-21T04:07:51.361Z,1006.9
2017-03-21T04:08:53.722Z,1007
2017-03-21T04:09:56.075Z,1006.9
2017-03-21T04:10:58.928Z,1006.9
2017-03-21T04:12:01.301Z,1006.9
2017-03-21T04:13:04.462Z,1006.9
2017-03-21T04:14:06.813Z,1006.9
2017-03-21T04:15:09.667Z,1006.8
2017-03-21T04:17:14.982Z,1006.9
2017-03-21T04:18:17.583Z,1006.9
2017-03-21T04:19:19.936Z,1006.9
2017-03-21T04:20:22.788Z,1006.9
2017-03-21T04:21:25.509Z,1007
2017-03-21T04:22:28.355Z,1006.9
2017-03-21T04:23:31.005Z,1006.9
2017-03-21T04:24:33.354Z,1006.9
2017-03-21T04:25:36.203Z,1006.8
2017-03-21T04:26:38.565Z,1006.9
2017-03-21T04:27:41.413Z,1006.9
2017-03-21T04:28:44.575Z,1006.9
2017-03-21T04:29:46.931Z,1006.9
2017-03-21T04:30:49.282Z,1007
2017-03-21T04:31:52.132Z,1006.9
2017-03-21T04:32:54.982Z,1006.9
2017-03-21T04:33:57.636Z,1006.9
2017-03-21T04:34:59.987Z,1006.9
2017-03-21T04:37:05.302Z,1006.9
2017-03-21T04:38:08.162Z,1006.9
2017-03-21T04:39:10.814Z,1006.9
2017-03-21T04:40:13.401Z,1006.9
2017-03-21T04:41:16.249Z,1006.9
2017-03-21T04:42:18.595Z,1007
2017-03-21T04:43:21.316Z,1007
2017-03-21T04:44:24.420Z,1007
2017-03-21T04:45:26.644Z,1007
2017-03-21T04:46:29.496Z,1007
2017-03-21T04:47:31.842Z,1007
2017-03-21T04:48:34.691Z,1007
2017-03-21T04:49:37.850Z,1007
2017-03-21T04:50:40.199Z,1007
2017-03-21T04:51:42.917Z,1006.9
2017-03-21T04:52:45.131Z,1006.9
2017-03-21T04:53:47.984Z,1006.9
2017-03-21T04:54:50.972Z,1006.9
2017-03-21T04:55:53.197Z,1006.9
2017-03-21T04:56:55.911Z,1006.9
2017-03-21T04:57:58.768Z,1007
2017-03-21T04:59:01.113Z,1007
2017-03-21T05:00:04.218Z,1007
2017-03-21T05:01:06.571Z,1006.9
2017-03-21T05:03:12.195Z,1006.9
2017-03-21T05:04:14.550Z,1006.9
2017-03-21T05:05:17.708Z,1006.9
2017-03-21T05:06:20.060Z,1006.9
2017-03-21T05:07:22.407Z,1006.9
2017-03-21T05:08:25.260Z,1006.9
2017-03-21T05:09:28.114Z,1006.9
2017-03-21T05:10:31.140Z,1006.9
2017-03-21T05:11:33.484Z,1007
2017-03-21T05:12:35.830Z,1006.9
2017-03-21T05:13:38.747Z,1007
2017-03-21T05:14:41.100Z,1007
2017-03-21T05:15:44.260Z,1007
2017-03-21T05:16:46.544Z,1007
2017-03-21T05:17:49.403Z,1007
2017-03-21T05:18:51.748Z,1007
2017-03-21T05:19:54.600Z,1007
2017-03-21T05:20:57.621Z,1007
2017-03-21T05:21:59.967Z,1006.9
2017-03-21T05:23:02.313Z,1007
2017-03-21T05:24:05.162Z,1007
2017-03-21T05:26:10.593Z,1007
2017-03-21T05:27:12.944Z,1007
2017-03-21T05:28:15.792Z,1007
2017-03-21T05:29:18.709Z,1007
2017-03-21T05:30:20.926Z,1007
2017-03-21T05:32:26.987Z,1007
2017-03-21T05:33:29.336Z,1007
2017-03-21T05:34:31.688Z,1007
2017-03-21T05:35:34.541Z,1007
2017-03-21T05:37:40.156Z,1007
2017-03-21T05:38:42.518Z,1007
2017-03-21T05:39:44.871Z,1007
2017-03-21T05:40:47.722Z,1007
2017-03-21T05:41:50.433Z,1007
2017-03-21T05:42:53.317Z,1007
2017-03-21T05:43:55.672Z,1007.1
2017-03-21T05:44:58.386Z,1007
2017-03-21T05:46:01.241Z,1007
2017-03-21T05:47:03.592Z,1007.1
2017-03-21T05:48:06.747Z,1007.1
2017-03-21T05:50:11.507Z,1007.1
2017-03-21T05:51:14.359Z,1007
2017-03-21T05:52:17.075Z,1007
2017-03-21T05:53:19.728Z,1007.1
2017-03-21T05:54:22.086Z,1007.2
2017-03-21T05:55:24.944Z,1007.1
2017-03-21T05:56:27.724Z,1007.1
2017-03-21T05:57:30.447Z,1007.2
2017-03-21T05:58:33.093Z,1007.1
2017-03-21T05:59:35.812Z,1007
2017-03-21T06:00:38.160Z,1007.2
2017-03-21T06:01:40.880Z,1007.1
2017-03-21T06:02:43.728Z,1007.2
2017-03-21T06:03:46.329Z,1007.1
2017-03-21T06:04:49.060Z,1007.1
2017-03-21T06:05:51.414Z,1007.1
2017-03-21T06:06:54.265Z,1007.2
2017-03-21T06:07:57.119Z,1007.1
2017-03-21T06:08:59.589Z,1007.2
2017-03-21T06:10:02.450Z,1007.2
2017-03-21T06:11:04.664Z,1007.3
2017-03-21T06:12:07.554Z,1007.2
2017-03-21T06:13:10.273Z,1007.2
2017-03-21T06:14:12.927Z,1007.2
2017-03-21T06:15:15.781Z,1007.2
2017-03-21T06:16:18.128Z,1007.2
2017-03-21T06:17:20.984Z,1007.2
2017-03-21T06:18:23.778Z,1007.3
2017-03-21T06:19:26.434Z,1007.2
2017-03-21T06:20:28.787Z,1007.2
2017-03-21T06:21:31.641Z,1007.3
2017-03-21T06:22:33.991Z,1007.2
2017-03-21T06:23:36.843Z,1007.2
2017-03-21T06:24:39.951Z,1007.2
2017-03-21T06:25:42.163Z,1007.2
2017-03-21T06:26:45.085Z,1007.2
2017-03-21T06:27:47.500Z,1007.3
2017-03-21T06:28:50.354Z,1007.3
2017-03-21T06:29:53.005Z,1007.3
2017-03-21T06:30:55.369Z,1007.3
2017-03-21T06:31:58.093Z,1007.3
2017-03-21T06:33:00.810Z,1007.3
2017-03-21T06:34:03.398Z,1007.4
2017-03-21T06:35:06.559Z,1007.4
2017-03-21T06:36:08.910Z,1007.3
2017-03-21T06:37:11.772Z,1007.3
2017-03-21T06:38:14.126Z,1007.3
2017-03-21T06:39:16.982Z,1007.3
2017-03-21T06:40:20.137Z,1007.2
2017-03-21T06:41:22.488Z,1007.3
2017-03-21T06:42:24.846Z,1007.2
2017-03-21T06:43:27.975Z,1007.2
2017-03-21T06:44:30.188Z,1007.2
2017-03-21T06:45:33.203Z,1007.2
2017-03-21T06:46:35.553Z,1007.2
2017-03-21T06:47:38.406Z,1007.2
2017-03-21T06:48:41.167Z,1007.2
2017-03-21T06:49:44.024Z,1007.3
2017-03-21T06:50:47.003Z,1007.3
2017-03-21T06:51:49.348Z,1007.3
2017-03-21T06:52:51.691Z,1007.4
2017-03-21T06:53:54.417Z,1007.4
2017-03-21T06:54:57.266Z,1007.4
2017-03-21T06:56:00.371Z,1007.4
2017-03-21T06:57:02.720Z,1007.4
2017-03-21T06:58:05.078Z,1007.3
2017-03-21T06:59:08.165Z,1007.4
2017-03-21T07:00:10.513Z,1007.4
2017-03-21T07:01:13.482Z,1007.4
2017-03-21T07:03:18.743Z,1007.4
2017-03-21T07:04:21.597Z,1007.4
2017-03-21T07:05:23.966Z,1007.5
2017-03-21T07:06:26.989Z,1007.5
2017-03-21T07:07:29.342Z,1007.6
2017-03-21T07:08:32.300Z,1007.6
2017-03-21T07:09:35.024Z,1007.5
2017-03-21T07:10:37.239Z,1007.5
2017-03-21T07:11:40.272Z,1007.5
2017-03-21T07:12:42.625Z,1007.5
2017-03-21T07:13:45.345Z,1007.5
2017-03-21T07:14:48.064Z,1007.5
2017-03-21T07:15:50.914Z,1007.4
2017-03-21T07:16:54.073Z,1007.5
2017-03-21T07:17:56.288Z,1007.5
2017-03-21T07:24:12.857Z,1007.5
2017-03-21T07:25:15.210Z,1007.6
2017-03-21T07:26:17.560Z,1007.6
2017-03-21T07:27:20.421Z,1007.6
2017-03-21T07:28:23.284Z,1007.6
2017-03-21T07:30:28.847Z,1007.7
2017-03-21T07:31:31.195Z,1007.6
2017-03-21T07:32:34.053Z,1007.7
2017-03-21T07:33:36.770Z,1007.7
2017-03-21T07:35:42.289Z,1007.7
2017-03-21T07:36:44.648Z,1007.7
2017-03-21T07:37:47.497Z,1007.7
2017-03-21T07:38:49.881Z,1007.7
2017-03-21T07:39:52.739Z,1007.7
2017-03-21T07:40:55.852Z,1007.8
2017-03-21T07:41:58.135Z,1007.7
2017-03-21T07:43:00.915Z,1007.8
2017-03-21T07:45:06.177Z,1007.7
2017-03-21T07:46:09.333Z,1007.7
2017-03-21T07:47:11.683Z,1007.7
2017-03-21T07:48:14.539Z,1007.8
2017-03-21T07:49:16.893Z,1007.8
2017-03-21T07:50:19.750Z,1007.8
2017-03-21T07:51:22.471Z,1007.8
2017-03-21T07:52:25.330Z,1007.8
2017-03-21T07:54:30.585Z,1007.8
2017-03-21T07:55:32.937Z,1007.9
2017-03-21T07:56:35.908Z,1007.8
2017-03-21T07:57:38.776Z,1007.8
2017-03-21T07:58:41.498Z,1007.9
2017-03-21T07:59:43.859Z,1007.8
2017-03-21T08:00:46.574Z,1007.8
2017-03-21T08:01:49.682Z,1007.8
2017-03-21T08:02:52.031Z,1007.8
2017-03-21T08:03:54.752Z,1007.8
2017-03-21T08:04:57.669Z,1007.8
2017-03-21T08:06:00.388Z,1007.9
2017-03-21T08:08:05.898Z,1007.8
2017-03-21T08:09:08.479Z,1007.7
2017-03-21T08:10:10.826Z,1007.8
2017-03-21T08:11:13.686Z,1007.9
2017-03-21T08:12:16.534Z,1007.8
2017-03-21T08:13:19.190Z,1007.9
2017-03-21T08:14:22.040Z,1007.8
2017-03-21T08:15:24.379Z,1007.6
2017-03-21T08:16:27.233Z,1007.7
2017-03-21T08:17:30.085Z,1007.7
2017-03-21T08:18:32.741Z,1007.8
2017-03-21T08:20:38.004Z,1007.8
2017-03-21T08:21:40.856Z,1007.7
2017-03-21T08:22:43.261Z,1007.7
2017-03-21T08:23:46.374Z,1007.7
2017-03-21T08:24:48.727Z,1007.7
2017-03-21T08:25:51.648Z,1007.7
2017-03-21T08:26:54.500Z,1007.8
2017-03-21T08:27:56.853Z,1007.7
2017-03-21T08:29:00.240Z,1007.8
2017-03-21T08:30:02.582Z,1007.8
2017-03-21T08:31:05.314Z,1007.8
2017-03-21T08:32:07.664Z,1007.8
2017-03-21T08:33:10.392Z,1007.8
2017-03-21T08:34:13.419Z,1007.8
2017-03-21T08:35:15.763Z,1007.8
2017-03-21T08:36:18.612Z,1007.9
2017-03-21T08:37:21.469Z,1007.9
2017-03-21T08:38:24.322Z,1007.9
2017-03-21T08:39:26.924Z,1007.9
2017-03-21T08:40:29.789Z,1008
2017-03-21T08:41:32.143Z,1007.9
2017-03-21T08:42:34.991Z,1007.9
2017-03-21T08:43:37.843Z,1007.9
2017-03-21T08:44:40.864Z,1008
2017-03-21T08:45:43.074Z,1007.9
2017-03-21T08:46:45.925Z,1008
2017-03-21T08:47:48.636Z,1008
2017-03-21T08:48:51.039Z,1008
2017-03-21T08:49:54.148Z,1008.1
2017-03-21T08:50:56.495Z,1008
2017-03-21T08:51:59.347Z,1008
2017-03-21T08:53:02.196Z,1008.1
2017-03-21T08:54:04.975Z,1008.1
2017-03-21T08:55:07.995Z,1008.2
2017-03-21T08:56:10.263Z,1008.2
2017-03-21T08:57:13.115Z,1008.2
2017-03-21T08:58:15.966Z,1008.2
2017-03-21T08:59:18.318Z,1008.1
2017-03-21T09:00:21.423Z,1008.1
2017-03-21T09:01:23.829Z,1008.2
2017-03-21T09:02:26.684Z,1008.2
2017-03-21T09:03:29.537Z,1008.2
2017-03-21T09:04:31.886Z,1008.2
2017-03-21T09:05:35.034Z,1008.3
2017-03-21T09:06:37.749Z,1008.2
2017-03-21T09:07:40.094Z,1008.2
2017-03-21T09:08:42.941Z,1008.2
2017-03-21T09:09:45.800Z,1008.3
2017-03-21T09:10:48.446Z,1008.2
2017-03-21T09:11:51.294Z,1008.3
2017-03-21T09:12:53.640Z,1008.3
2017-03-21T09:13:56.498Z,1008.3
2017-03-21T09:14:59.353Z,1008.3
2017-03-21T09:16:02.503Z,1008.3
2017-03-21T09:17:04.584Z,1008.3
2017-03-21T09:18:07.168Z,1008.4
2017-03-21T09:19:10.018Z,1008.3
2017-03-21T09:20:12.871Z,1008.3
2017-03-21T09:21:15.838Z,1008.2
2017-03-21T09:22:18.186Z,1008.2
2017-03-21T09:23:21.034Z,1008.3
2017-03-21T09:24:23.763Z,1008.2
2017-03-21T09:25:26.612Z,1008.3
2017-03-21T09:26:29.211Z,1008.2
2017-03-21T09:27:32.060Z,1008.4
2017-03-21T09:28:34.409Z,1008.3
2017-03-21T09:29:37.131Z,1008.4
2017-03-21T09:30:39.984Z,1008.3
2017-03-21T09:31:43.142Z,1008.3
2017-03-21T09:32:45.723Z,1008.4
2017-03-21T09:33:48.071Z,1008.4
2017-03-21T09:34:51.169Z,1008.4
2017-03-21T09:35:53.520Z,1008.4
2017-03-21T09:36:56.825Z,1008.4
2017-03-21T09:37:59.178Z,1008.3
2017-03-21T09:39:02.027Z,1008.4
2017-03-21T09:40:04.743Z,1008.4
2017-03-21T09:41:07.326Z,1008.4
2017-03-21T09:42:10.342Z,1008.4
2017-03-21T09:43:12.695Z,1008.5
2017-03-21T09:44:15.542Z,1008.4
2017-03-21T09:45:18.259Z,1008.5
2017-03-21T09:46:20.978Z,1008.4
2017-03-21T09:47:24.085Z,1008.5
2017-03-21T09:48:26.431Z,1008.5
2017-03-21T09:49:29.282Z,1008.4
2017-03-21T09:50:32.140Z,1008.4
2017-03-21T09:51:34.490Z,1008.4
2017-03-21T09:52:37.523Z,1008.4
2017-03-21T09:54:42.649Z,1008.5
2017-03-21T09:55:45.500Z,1008.5
2017-03-21T09:56:48.218Z,1008.4
2017-03-21T09:57:51.313Z,1008.5
2017-03-21T09:58:53.661Z,1008.5
2017-03-21T09:59:56.510Z,1008.5
2017-03-21T10:00:59.296Z,1008.5
2017-03-21T10:02:02.148Z,1008.6
2017-03-21T10:03:04.800Z,1008.6
2017-03-21T10:04:07.387Z,1008.6
2017-03-21T10:05:10.240Z,1008.6
2017-03-21T10:06:12.957Z,1008.6
2017-03-21T10:07:15.811Z,1008.7
2017-03-21T10:08:18.458Z,1008.6
2017-03-21T10:09:20.803Z,1008.6
2017-03-21T10:10:23.519Z,1008.6
2017-03-21T10:11:26.368Z,1008.7
2017-03-21T10:12:29.221Z,1008.7
2017-03-21T10:14:34.728Z,1008.7
2017-03-21T10:15:37.578Z,1008.7
2017-03-21T10:16:39.924Z,1008.7
2017-03-21T10:17:42.640Z,1008.6
2017-03-21T10:18:45.356Z,1008.7
2017-03-21T10:19:48.507Z,1008.6
2017-03-21T10:20:50.853Z,1008.6
2017-03-21T10:21:53.706Z,1008.6
2017-03-21T10:22:56.557Z,1008.7
2017-03-21T10:23:58.914Z,1008.6
2017-03-21T10:25:02.017Z,1008.6
2017-03-21T10:26:04.509Z,1008.6
2017-03-21T10:27:07.225Z,1008.6
2017-03-21T10:28:09.943Z,1008.5
2017-03-21T10:29:12.528Z,1008.6
2017-03-21T10:30:15.548Z,1008.6
2017-03-21T10:31:17.902Z,1008.6
2017-03-21T10:32:20.748Z,1008.6
2017-03-21T10:33:23.639Z,1008.6
2017-03-21T10:34:25.983Z,1008.6
2017-03-21T10:35:29.088Z,1008.6
2017-03-21T10:36:31.801Z,1008.6
2017-03-21T10:37:34.148Z,1008.6
2017-03-21T10:39:39.777Z,1008.6
2017-03-21T10:40:42.932Z,1008.6
2017-03-21T10:41:45.144Z,1008.6
2017-03-21T10:42:47.860Z,1008.6
2017-03-21T10:43:50.709Z,1008.6
2017-03-21T10:44:53.558Z,1008.6
2017-03-21T10:45:56.209Z,1008.5
2017-03-21T10:46:58.562Z,1008.5
2017-03-21T10:48:01.411Z,1008.5
2017-03-21T10:49:04.318Z,1008.5
2017-03-21T10:50:06.667Z,1008.5
2017-03-21T10:51:09.823Z,1008.6
2017-03-21T10:52:12.208Z,1008.6
2017-03-21T10:53:15.059Z,1008.5
2017-03-21T10:54:17.636Z,1008.6
2017-03-21T10:55:20.485Z,1008.5
2017-03-21T10:56:23.636Z,1008.6
2017-03-21T10:57:25.849Z,1008.5
2017-03-21T10:59:31.479Z,1008.5
2017-03-21T11:00:33.829Z,1008.6
2017-03-21T11:01:36.983Z,1008.6
2017-03-21T11:02:39.381Z,1008.6
2017-03-21T11:03:41.796Z,1008.6
2017-03-21T11:04:44.657Z,1008.6
2017-03-21T11:05:47.513Z,1008.5
2017-03-21T11:06:50.527Z,1008.5
2017-03-21T11:07:52.931Z,1008.5
2017-03-21T11:08:55.654Z,1008.6
2017-03-21T11:09:58.002Z,1008.5
2017-03-21T11:11:00.855Z,1008.5
2017-03-21T11:12:03.962Z,1008.5
2017-03-21T11:13:06.308Z,1008.5
2017-03-21T11:14:09.161Z,1008.5
2017-03-21T11:15:11.509Z,1008.5
2017-03-21T11:16:14.360Z,1008.5
2017-03-21T11:17:17.328Z,1008.5
2017-03-21T11:18:20.049Z,1008.5
2017-03-21T11:19:22.396Z,1008.5
2017-03-21T11:20:25.247Z,1008.5
2017-03-21T11:21:28.099Z,1008.6
2017-03-21T11:22:31.113Z,1008.6
2017-03-21T11:23:33.465Z,1008.7
2017-03-21T11:24:36.047Z,1008.7
2017-03-21T11:25:38.759Z,1008.7
2017-03-21T11:27:44.138Z,1008.7
2017-03-21T11:28:46.992Z,1008.8
2017-03-21T11:29:49.338Z,1008.7
2017-03-21T11:30:52.187Z,1008.7
2017-03-21T11:31:55.046Z,1008.8
2017-03-21T11:32:58.062Z,1008.8
2017-03-21T11:34:00.414Z,1008.8
2017-03-21T11:35:03.127Z,1008.7
2017-03-21T11:36:05.710Z,1008.7
2017-03-21T11:37:08.434Z,1008.7
2017-03-21T11:38:11.035Z,1008.7
2017-03-21T11:39:13.885Z,1008.7
2017-03-21T11:40:16.601Z,1008.6
2017-03-21T11:41:19.318Z,1008.7
2017-03-21T11:42:21.665Z,1008.7
2017-03-21T11:43:24.815Z,1008.7
2017-03-21T11:44:27.170Z,1008.7
2017-03-21T11:45:30.019Z,1008.7
2017-03-21T11:46:32.363Z,1008.7
2017-03-21T11:47:35.208Z,1008.8
2017-03-21T11:48:38.312Z,1008.8
2017-03-21T11:49:40.538Z,1008.7
2017-03-21T11:50:43.386Z,1008.7
2017-03-21T11:51:45.741Z,1008.7
2017-03-21T11:52:48.620Z,1008.7
2017-03-21T11:53:51.615Z,1008.7
2017-03-21T11:54:53.967Z,1008.7
2017-03-21T11:55:56.319Z,1008.8
2017-03-21T11:56:59.174Z,1008.8
2017-03-21T11:58:01.899Z,1008.8
2017-03-21T11:59:04.870Z,1008.9
2017-03-21T12:00:07.290Z,1008.8
2017-03-21T12:01:10.014Z,1008.8
2017-03-21T12:02:12.868Z,1008.8
2017-03-21T12:03:15.219Z,1008.8
2017-03-21T12:04:18.374Z,1008.8
2017-03-21T12:05:20.723Z,1008.7
2017-03-21T12:06:23.576Z,1008.8
2017-03-21T12:07:25.921Z,1008.8
2017-03-21T12:08:28.639Z,1008.8
2017-03-21T12:09:31.657Z,1008.8
2017-03-21T12:10:34.007Z,1008.8
2017-03-21T12:11:36.859Z,1008.7
2017-03-21T12:12:39.572Z,1008.8
2017-03-21T12:13:41.930Z,1008.7
2017-03-21T12:14:45.032Z,1008.7
2017-03-21T12:15:47.255Z,1008.7
2017-03-21T12:16:50.107Z,1008.7
2017-03-21T12:17:52.953Z,1008.7
2017-03-21T12:18:55.303Z,1008.7
2017-03-21T12:19:58.466Z,1008.7
2017-03-21T12:21:00.746Z,1008.7
2017-03-21T12:22:03.461Z,1008.7
2017-03-21T12:23:06.180Z,1008.8
2017-03-21T12:24:09.034Z,1008.8
2017-03-21T12:25:11.688Z,1008.8
2017-03-21T12:26:14.037Z,1008.7
2017-03-21T12:27:16.755Z,1008.8
2017-03-21T12:28:19.608Z,1008.8
2017-03-21T12:29:22.453Z,1008.8
2017-03-21T12:30:24.971Z,1008.8
2017-03-21T12:31:27.552Z,1008.8
2017-03-21T12:32:30.268Z,1008.8
2017-03-21T12:33:33.123Z,1008.7
2017-03-21T12:34:35.471Z,1008.7
2017-03-21T12:35:38.658Z,1008.7
2017-03-21T12:37:43.560Z,1008.6
2017-03-21T12:38:46.143Z,1008.6
2017-03-21T12:39:48.928Z,1008.7
2017-03-21T12:40:52.083Z,1008.7
2017-03-21T12:41:54.435Z,1008.7
2017-03-21T12:42:56.782Z,1008.6
2017-03-21T12:43:59.634Z,1008.7
2017-03-21T12:45:02.355Z,1008.7
2017-03-21T12:46:05.367Z,1008.7
2017-03-21T12:47:07.578Z,1008.6
2017-03-21T12:48:10.425Z,1008.7
2017-03-21T12:49:13.281Z,1008.7
2017-03-21T12:50:15.632Z,1008.6
2017-03-21T12:51:18.653Z,1008.6
2017-03-21T12:52:21.001Z,1008.6
2017-03-21T12:53:23.721Z,1008.6
2017-03-21T12:54:26.582Z,1008.6
2017-03-21T12:55:29.314Z,1008.5
2017-03-21T12:56:31.962Z,1008.5
2017-03-21T12:57:34.307Z,1008.5
2017-03-21T12:59:39.571Z,1008.5
2017-03-21T13:00:42.419Z,1008.5
2017-03-21T13:01:45.523Z,1008.5
2017-03-21T13:02:47.868Z,1008.6
2017-03-21T13:03:50.717Z,1008.6
2017-03-21T13:04:53.106Z,1008.5
2017-03-21T13:05:55.959Z,1008.6
2017-03-21T13:06:58.663Z,1008.5
2017-03-21T13:08:01.014Z,1008.6
2017-03-21T13:09:03.865Z,1008.6
2017-03-21T13:10:06.449Z,1008.6
2017-03-21T13:11:09.299Z,1008.5
2017-03-21T13:12:11.904Z,1008.6
2017-03-21T13:13:14.776Z,1008.6
2017-03-21T13:14:17.122Z,1008.6
2017-03-21T13:15:19.711Z,1008.6
2017-03-21T13:16:22.567Z,1008.5
2017-03-21T13:17:25.585Z,1008.5
2017-03-21T13:18:27.941Z,1008.5
2017-03-21T13:19:30.653Z,1008.5
2017-03-21T13:21:35.904Z,1008.5
2017-03-21T13:22:39.052Z,1008.5
2017-03-21T13:23:41.404Z,1008.5
2017-03-21T13:24:43.755Z,1008.5
2017-03-21T13:25:46.609Z,1008.5
2017-03-21T13:26:49.458Z,1008.5
2017-03-21T13:27:52.427Z,1008.5
2017-03-21T13:28:54.770Z,1008.5
2017-03-21T13:29:57.127Z,1008.5
2017-03-21T13:30:59.987Z,1008.5
2017-03-21T13:32:02.835Z,1008.5
2017-03-21T13:33:05.498Z,1008.5
2017-03-21T13:34:07.848Z,1008.5
2017-03-21T13:35:10.696Z,1008.5
2017-03-21T13:36:13.548Z,1008.4
2017-03-21T13:37:15.928Z,1008.4
2017-03-21T13:38:19.029Z,1008.4
2017-03-21T13:39:21.380Z,1008.4